Shtandart — UAEM — position and weather

sailwx.info

Track history (hours):
 
Tides and Currents Weather Stations Pressure Air Temp Water Temp Dewpoint Dewpoint Depression Visibility Wind Speed Wind Dir Waves Ship Positions

Shtandart

Re-creation of early 1700's Russian naval frigate.

Last reported at 2020-Jan-14 10:31 UTC. Time now 2020-Jan-25 03:04 UTC.
Position N 41°08' E 001°29'.
Warning: this ship's position is 10 days out of date.

Length 26 m; draft 3 m.

Type: Sailing vessel. MMSI: 273452840.

Date/timePositionNaut miles runAvg speedWind from/ knotsBaromVisibWave heightAir tempDewpointWater temp
2020-Jan-14 10:31N 41°08' E 001°29'3 4.8
2020-Jan-14 09:52N 41°09' E 001°33'9 3.9
2020-Jan-14 07:29N 41°13' E 001°44'0 0.0
2020-Jan-14 05:59N 41°13' E 001°44'0 0.0
2020-Jan-14 05:29N 41°13' E 001°44'0 0.0
2020-Jan-14 00:50N 41°13' E 001°44'0 0.0
2020-Jan-13 20:26N 41°13' E 001°44'0 0.0
2020-Jan-13 17:56N 41°13' E 001°44'0 0.0
2020-Jan-13 16:53N 41°13' E 001°44'0 0.0
2020-Jan-13 11:59N 41°13' E 001°44'0 0.0
2020-Jan-13 10:59N 41°13' E 001°44'0 0.0
2020-Jan-13 07:53N 41°13' E 001°44'0 0.0
2020-Jan-13 06:23N 41°13' E 001°44'0 0.0
2020-Jan-13 04:56N 41°13' E 001°44'0 0.0
2020-Jan-13 04:26N 41°13' E 001°44'0 0.0
2020-Jan-13 03:59N 41°13' E 001°44'0 0.0
2020-Jan-13 03:29N 41°13' E 001°44'0 0.0
2020-Jan-13 01:56N 41°13' E 001°44'0 0.0
2020-Jan-13 01:29N 41°13' E 001°44'0 0.0
2020-Jan-13 00:17N 41°13' E 001°44'0 0.0
2020-Jan-12 20:20N 41°13' E 001°44'0 0.0
2020-Jan-12 18:23N 41°13' E 001°44'0 0.0
2020-Jan-12 17:23N 41°13' E 001°44'0 0.0
2020-Jan-12 16:26N 41°13' E 001°44'0 0.0
2020-Jan-12 15:53N 41°13' E 001°44'0 0.0
2020-Jan-12 15:23N 41°13' E 001°44'0 0.0
2020-Jan-12 12:29N 41°13' E 001°44'0 0.0
2020-Jan-12 11:29N 41°13' E 001°44'0 0.0
2020-Jan-12 10:29N 41°13' E 001°44'0 0.0
2020-Jan-12 08:59N 41°13' E 001°44'0 0.0
2020-Jan-12 08:29N 41°13' E 001°44'0 0.0
2020-Jan-12 06:35N 41°13' E 001°44'0 0.0
2020-Jan-12 02:53N 41°13' E 001°44'0 0.0
2020-Jan-12 00:56N 41°13' E 001°44'0 0.0
2020-Jan-11 23:56N 41°13' E 001°44'0 0.0
2020-Jan-11 22:59N 41°13' E 001°44'0 0.0
2020-Jan-11 22:29N 41°13' E 001°44'0 0.0
2020-Jan-11 21:29N 41°13' E 001°44'0 0.0
2020-Jan-11 20:59N 41°13' E 001°44'3 0.7
2020-Jan-11 17:00N 41°10' E 001°44'5 5.0
2020-Jan-11 16:00N 41°08' E 001°38'  
2020-Jan-06 19:14N 40°49' E 002°39'11 4.1
2020-Jan-06 16:30N 40°58' E 002°30'2 4.0
2020-Jan-06 16:01N 40°60' E 002°28'3 2.8
2020-Jan-06 15:00N 41°02' E 002°26'6 2.8
2020-Jan-06 13:01N 41°07' E 002°23'2 4.8
2020-Jan-06 12:31N 41°09' E 002°21'14 4.7
2020-Jan-06 09:31N 41°21' E 002°11'1 1.2
2020-Jan-06 09:00N 41°22' E 002°11'1 0.5
2020-Jan-06 07:28N 41°23' E 002°11'0 0.0
2020-Jan-06 03:58N 41°23' E 002°11'0 0.0
2020-Jan-06 03:28N 41°23' E 002°11'0 0.0
2020-Jan-06 01:28N 41°23' E 002°11'0 0.0
2020-Jan-05 23:58N 41°23' E 002°11'0 0.0
2020-Jan-05 23:28N 41°23' E 002°11'0 0.0
2020-Jan-05 22:58N 41°23' E 002°11'0 0.0
2020-Jan-05 22:28N 41°23' E 002°11'0 0.0
2020-Jan-05 21:58N 41°23' E 002°11'0 0.0
2020-Jan-05 18:27N 41°23' E 002°11'0 0.0
2020-Jan-05 14:59N 41°23' E 002°11'0 0.0
2020-Jan-05 12:56N 41°23' E 002°11'0 0.0
2020-Jan-05 11:59N 41°23' E 002°11'0 0.0
2020-Jan-05 10:30N 41°23' E 002°11'0 0.0
2020-Jan-05 09:30N 41°23' E 002°11'0 0.0
2020-Jan-05 08:57N 41°23' E 002°11'0 0.0
2020-Jan-05 08:27N 41°23' E 002°11'0 0.0
2020-Jan-05 07:30N 41°23' E 002°11'0 0.0
2020-Jan-05 07:00N 41°23' E 002°11'0 0.0
2020-Jan-05 06:00N 41°23' E 002°11'0 0.0
2020-Jan-05 05:30N 41°23' E 002°11'0 0.0
2020-Jan-04 22:30N 41°23' E 002°11'0 0.0
2020-Jan-04 21:00N 41°23' E 002°11'0 0.0
2020-Jan-04 20:27N 41°23' E 002°11'0 0.0
2020-Jan-04 19:30N 41°23' E 002°11'0 0.0
2020-Jan-04 17:00N 41°23' E 002°11'0 0.0
2020-Jan-04 16:00N 41°23' E 002°11'0 0.0
2020-Jan-04 15:30N 41°23' E 002°11'0 0.0
2020-Jan-04 15:00N 41°23' E 002°11'0 0.0
2020-Jan-04 13:57N 41°23' E 002°11'  
Track history (hours):
 
Tides and Currents Weather Stations Pressure Air Temp Water Temp Dewpoint Dewpoint Depression Visibility Wind Speed Wind Dir Waves Ship Positions

Shtandart

Re-creation of early 1700's Russian naval frigate.

Last reported at 2020-Jan-14 10:31 UTC. Time now 2020-Jan-25 03:04 UTC.
Position N 41°08' E 001°29'.
Warning: this ship's position is 10 days out of date.

Length 26 m; draft 3 m.

Type: Sailing vessel. MMSI: 273452840.

Date/timePositionNaut miles runAvg speedWind from/ knotsBaromVisibWave heightAir tempDewpointWater temp
2020-Jan-14 10:31N 41°08' E 001°29'3 4.8
2020-Jan-14 09:52N 41°09' E 001°33'9 3.9
2020-Jan-14 07:29N 41°13' E 001°44'0 0.0
2020-Jan-14 05:59N 41°13' E 001°44'0 0.0
2020-Jan-14 05:29N 41°13' E 001°44'0 0.0
2020-Jan-14 00:50N 41°13' E 001°44'0 0.0
2020-Jan-13 20:26N 41°13' E 001°44'0 0.0
2020-Jan-13 17:56N 41°13' E 001°44'0 0.0
2020-Jan-13 16:53N 41°13' E 001°44'0 0.0
2020-Jan-13 11:59N 41°13' E 001°44'0 0.0
2020-Jan-13 10:59N 41°13' E 001°44'0 0.0
2020-Jan-13 07:53N 41°13' E 001°44'0 0.0
2020-Jan-13 06:23N 41°13' E 001°44'0 0.0
2020-Jan-13 04:56N 41°13' E 001°44'0 0.0
2020-Jan-13 04:26N 41°13' E 001°44'0 0.0
2020-Jan-13 03:59N 41°13' E 001°44'0 0.0
2020-Jan-13 03:29N 41°13' E 001°44'0 0.0
2020-Jan-13 01:56N 41°13' E 001°44'0 0.0
2020-Jan-13 01:29N 41°13' E 001°44'0 0.0
2020-Jan-13 00:17N 41°13' E 001°44'0 0.0
2020-Jan-12 20:20N 41°13' E 001°44'0 0.0
2020-Jan-12 18:23N 41°13' E 001°44'0 0.0
2020-Jan-12 17:23N 41°13' E 001°44'0 0.0
2020-Jan-12 16:26N 41°13' E 001°44'0 0.0
2020-Jan-12 15:53N 41°13' E 001°44'0 0.0
2020-Jan-12 15:23N 41°13' E 001°44'0 0.0
2020-Jan-12 12:29N 41°13' E 001°44'0 0.0
2020-Jan-12 11:29N 41°13' E 001°44'0 0.0
2020-Jan-12 10:29N 41°13' E 001°44'0 0.0
2020-Jan-12 08:59N 41°13' E 001°44'0 0.0
2020-Jan-12 08:29N 41°13' E 001°44'0 0.0
2020-Jan-12 06:35N 41°13' E 001°44'0 0.0
2020-Jan-12 02:53N 41°13' E 001°44'0 0.0
2020-Jan-12 00:56N 41°13' E 001°44'0 0.0
2020-Jan-11 23:56N 41°13' E 001°44'0 0.0
2020-Jan-11 22:59N 41°13' E 001°44'0 0.0
2020-Jan-11 22:29N 41°13' E 001°44'0 0.0
2020-Jan-11 21:29N 41°13' E 001°44'0 0.0
2020-Jan-11 20:59N 41°13' E 001°44'3 0.7
2020-Jan-11 17:00N 41°10' E 001°44'5 5.0
2020-Jan-11 16:00N 41°08' E 001°38'  
2020-Jan-06 19:14N 40°49' E 002°39'11 4.1
2020-Jan-06 16:30N 40°58' E 002°30'2 4.0
2020-Jan-06 16:01N 40°60' E 002°28'3 2.8
2020-Jan-06 15:00N 41°02' E 002°26'6 2.8
2020-Jan-06 13:01N 41°07' E 002°23'2 4.8
2020-Jan-06 12:31N 41°09' E 002°21'14 4.7
2020-Jan-06 09:31N 41°21' E 002°11'1 1.2
2020-Jan-06 09:00N 41°22' E 002°11'1 0.5
2020-Jan-06 07:28N 41°23' E 002°11'0 0.0
2020-Jan-06 03:58N 41°23' E 002°11'0 0.0
2020-Jan-06 03:28N 41°23' E 002°11'0 0.0
2020-Jan-06 01:28N 41°23' E 002°11'0 0.0
2020-Jan-05 23:58N 41°23' E 002°11'0 0.0
2020-Jan-05 23:28N 41°23' E 002°11'0 0.0
2020-Jan-05 22:58N 41°23' E 002°11'0 0.0
2020-Jan-05 22:28N 41°23' E 002°11'0 0.0
2020-Jan-05 21:58N 41°23' E 002°11'0 0.0
2020-Jan-05 18:27N 41°23' E 002°11'0 0.0
2020-Jan-05 14:59N 41°23' E 002°11'0 0.0
2020-Jan-05 12:56N 41°23' E 002°11'0 0.0
2020-Jan-05 11:59N 41°23' E 002°11'0 0.0
2020-Jan-05 10:30N 41°23' E 002°11'0 0.0
2020-Jan-05 09:30N 41°23' E 002°11'0 0.0
2020-Jan-05 08:57N 41°23' E 002°11'0 0.0
2020-Jan-05 08:27N 41°23' E 002°11'0 0.0
2020-Jan-05 07:30N 41°23' E 002°11'0 0.0
2020-Jan-05 07:00N 41°23' E 002°11'0 0.0
2020-Jan-05 06:00N 41°23' E 002°11'0 0.0
2020-Jan-05 05:30N 41°23' E 002°11'0 0.0
2020-Jan-04 22:30N 41°23' E 002°11'0 0.0
2020-Jan-04 21:00N 41°23' E 002°11'0 0.0
2020-Jan-04 20:27N 41°23' E 002°11'0 0.0
2020-Jan-04 19:30N 41°23' E 002°11'0 0.0
2020-Jan-04 17:00N 41°23' E 002°11'0 0.0
2020-Jan-04 16:00N 41°23' E 002°11'0 0.0
2020-Jan-04 15:30N 41°23' E 002°11'0 0.0
2020-Jan-04 15:00N 41°23' E 002°11'0 0.0
2020-Jan-04 13:57N 41°23' E 002°11'  

Dump ship's entire track history